• Join FlightAware (Why Join?)
  • Login
  • US Flag 
06:43PM EDT


 

Airport Tracker/Info


-or-


 

Live Flight TrackerFlight Track Log ✈ N960DL ✈ 25-Jul-2013 ✈ KBUF - KATL

Flight Track Log - Related Links

Times and Time Zones

All times are in EDT time to prevent confusion due to time zone crossing. See the N960DL flight status page for this flight to view local times or setup timezone preferences in your user account.

Time Position Orientation Groundspeed Altitude Reporting Facility
EDT Latitude Longitude Course Direction KTS MPH feet Rate Location/Type
06:04PM 42.9500 -78.7167 202° Southwest 161 185 1,700  Level Buffalo TRACON
06:05PM 42.9667 -78.6833 56° Northeast 153 176 2,800 2,160 Climbing Buffalo TRACON
06:07PM 42.6045 -78.8978 200° South  Level FlightAware Approximate
06:07PM 42.8700 -78.6908 183° South 134 154 8,300  Level Cleveland Center
06:08PM 42.4897 -78.9497 198° South  Level FlightAware Approximate
06:08PM 42.8058 -78.7267 202° Southwest 218 251 10,600  Level Cleveland Center
06:09PM 42.3780 -79.0119 202° Southwest  Level FlightAware Approximate
06:09PM 42.7256 -78.7828 207° Southwest 278 320 11,800  Level Cleveland Center
06:10PM 42.2656 -79.0725 202° Southwest  Level FlightAware Approximate
06:10PM 42.6283 -78.8450 205° Southwest 343 395 13,800  Level Cleveland Center
06:11PM 42.5150 -78.9183 206° Southwest 397 457 16,700 2,220 Climbing Cleveland Center
06:12PM 42.4075 -78.9831 204° Southwest 420 483 18,300 1,680 Climbing Cleveland Center
06:13PM 42.2981 -79.0561 206° Southwest 426 490 20,100 1,800 Climbing Cleveland Center
06:14PM 42.1967 -79.1203 205° Southwest 441 507 21,900 1,740 Climbing Cleveland Center
06:15PM 42.0872 -79.2094 211° Southwest 446 513 23,600 1,800 Climbing Cleveland Center
06:16PM 41.9758 -79.2956 210° Southwest 457 526 25,500 1,800 Climbing Cleveland Center
06:17PM 41.8683 -79.3842 212° Southwest 467 537 27,200 1,560 Climbing Cleveland Center
06:18PM 41.7586 -79.4725 211° Southwest 467 537 28,700 1,380 Climbing Cleveland Center
06:19PM 41.6469 -79.5633 211° Southwest 462 532 30,000 1,260 Climbing Cleveland Center
06:20PM 41.5392 -79.6483 211° Southwest 467 537 31,300 960 Climbing Cleveland Center
06:21PM 41.4317 -79.7328 211° Southwest 467 537 32,000 300 Climbing Cleveland Center
06:22PM 41.3236 -79.8200 211° Southwest 467 537 32,000  Level Cleveland Center
06:23PM 41.2117 -79.9069 210° Southwest 467 537 32,000  Level Cleveland Center
06:24PM 41.1039 -79.9908 210° Southwest 461 531 32,000  Level Cleveland Center
06:25PM 40.9978 -80.0769 211° Southwest 461 531 32,000  Level Cleveland Center
06:26PM 40.8878 -80.1628 211° Southwest 461 531 32,000  Level Cleveland Center
06:27PM 40.7586 -80.2350 203° Southwest 465 535 32,000  Level Cleveland Center
06:28PM 40.6339 -80.2794 195° South 465 535 32,000  Level Cleveland Center
06:29PM 40.5067 -80.3236 195° South 465 535 32,000  Level Cleveland Center
06:30PM 40.3817 -80.3622 193° South 465 535 32,000  Level Cleveland Center
06:31PM 40.2631 -80.4144 199° South 465 535 32,000  Level Cleveland Center
06:32PM 40.1442 -80.4800 203° Southwest 465 535 32,000  Level Cleveland Center
06:33PM 40.0256 -80.5478 204° Southwest 465 535 32,000  Level Cleveland Center
06:34PM 39.9086 -80.6156 204° Southwest 465 535 32,000  Level Cleveland Center
06:35PM 39.8092 -80.6700 203° Southwest 466 536 32,000  Level Indianapolis Center
06:36PM 39.6911 -80.7372 204° Southwest 465 535 32,000  Level Indianapolis Center
06:37PM 39.5714 -80.8050 204° Southwest 466 536 32,000  Level Indianapolis Center
06:38PM 39.4531 -80.8739 204° Southwest 466 536 32,000  Level Indianapolis Center
06:39PM 39.3353 -80.9381 203° Southwest 461 531 32,000  Level Indianapolis Center
06:40PM 39.2144 -81.0014 202° Southwest 464 534 32,000  Level Indianapolis Center
06:41PM 39.0703 -81.0772 202° Southwest 464 534 32,000  Level Indianapolis Center
06:43PM 38.9450 -81.1233 196° South 470 541 32,000  Level Indianapolis Center
06:44PM 38.8175 -81.1597 193° South 467 537 32,000  Level Indianapolis Center
06:45PM 38.6894 -81.1969 193° South 466 536 32,000  Level Indianapolis Center
06:46PM 38.5611 -81.2336 193° South 464 534 32,000  Level Indianapolis Center
06:47PM 38.4333 -81.2697 192° South 463 533 32,000  Level Indianapolis Center
06:48PM 38.3125 -81.3300 201° Southwest 463 533 32,000  Level Indianapolis Center
06:49PM 38.1967 -81.3992 205° Southwest 459 528 32,000  Level Indianapolis Center
06:50PM 38.0783 -81.4658 204° Southwest 461 531 32,000  Level Indianapolis Center
06:51PM 37.9358 -81.5461 204° Southwest 465 535 32,000  Level Indianapolis Center
06:52PM 37.8200 -81.6089 203° Southwest 468 539 32,000  Level Indianapolis Center
06:53PM 37.7008 -81.6764 204° Southwest 468 539 32,000  Level Indianapolis Center
06:55PM 37.4519 -81.8169 204° Southwest 471 542 32,000  Level Atlanta Center
06:56PM 37.3342 -81.8803 203° Southwest 471 542 32,000  Level Atlanta Center
06:57PM 37.2164 -81.9461 204° Southwest 471 542 32,000  Level Atlanta Center
06:58PM 37.0967 -82.0142 204° Southwest 471 542 32,000  Level Atlanta Center
06:59PM 36.9811 -82.0769 203° Southwest 471 542 32,000  Level Atlanta Center
07:00PM 36.8631 -82.1422 204° Southwest 471 542 32,000  Level Atlanta Center
07:01PM 36.7475 -82.2072 204° Southwest 471 542 32,000  Level Atlanta Center
07:02PM 36.6275 -82.2694 203° Southwest 471 542 32,000  Level Atlanta Center
07:03PM 36.5114 -82.3339 204° Southwest 463 533 32,000  Level Atlanta Center
07:04PM 36.3894 -82.4011 204° Southwest 463 533 32,000  Level Atlanta Center
07:05PM 36.2714 -82.4628 203° Southwest 468 539 32,000  Level Atlanta Center
07:06PM 36.1533 -82.5267 204° Southwest 468 539 32,000  Level Atlanta Center
07:07PM 36.0350 -82.5906 204° Southwest 468 539 32,000  Level Atlanta Center
07:08PM 35.9336 -82.6564 208° Southwest 468 539 32,000  Level Atlanta Center
07:09PM 35.8197 -82.7378 210° Southwest 465 535 32,000  Level Atlanta Center
07:10PM 35.7081 -82.8164 210° Southwest 470 541 32,000  Level Atlanta Center
07:11PM 35.5942 -82.8997 211° Southwest 475 547 32,000  Level Atlanta Center
07:12PM 35.4822 -82.9778 210° Southwest 470 541 32,000 -540 Level Atlanta Center
07:13PM 35.3703 -83.0658 213° Southwest 475 547 31,000  Descending Atlanta Center
07:14PM 35.2581 -83.1536 213° Southwest 475 547 32,000 -1,500 Climbing Atlanta Center
07:15PM 35.1481 -83.2386 212° Southwest 475 547 28,000 -2,580 Descending Atlanta Center
07:16PM 35.0422 -83.3208 212° Southwest 475 547 26,900 -1,740 Descending Atlanta Center
07:17PM 34.9300 -83.4053 212° Southwest 449 517 24,600 -2,700 Descending Atlanta Center
07:18PM 34.8325 -83.4972 218° Southwest 443 510 21,600 -2,460 Descending Atlanta Center
07:19PM 34.7431 -83.5811 218° Southwest 443 510 19,700 -2,100 Descending Atlanta Center
07:20PM 34.6556 -83.6700 220° Southwest 421 484 17,400 -1,380 Descending Atlanta Center
07:21PM 34.5683 -83.7564 219° Southwest 405 466 17,000 -420 Descending Atlanta Center
07:22PM 34.4850 -83.8169 211° Southwest 400 460 16,600 -1,260 Descending Atlanta Center
07:23PM 34.3931 -83.8853 212° Southwest 395 455 14,500 -1,800 Descending Atlanta Center
07:24PM 34.3036 -83.9508 211° Southwest 384 442 13,100 -840 Descending Atlanta Center
07:25PM 34.2139 -84.0186 212° Southwest 384 442 12,900 -360 Descending Atlanta Center
07:26PM 34.1386 -84.0964 221° Southwest 373 429 12,400 -900 Descending Atlanta Center
07:27PM 34.0614 -84.1442 207° Southwest 304 350 11,200 -1,740 Descending Atlanta Center
07:28PM 33.9694 -84.1414 179° South 298 343 9,000 -2,280 Descending Atlanta Center
07:29PM 33.8667 -84.1333 176° South 286 329 6,000 -1,500 Descending Atlanta TRACON
07:30PM 33.8172 -84.1189 166° South 282 325 6,000  Level Atlanta Center
07:31PM 33.7567 -84.1289 188° South 238 274 6,000 -720 Level Atlanta Center
07:32PM 33.7003 -84.1636 207° Southwest 226 260 4,600 -1,440 Descending Atlanta Center